Time;durP1;ratioP1;P1;durP2;ratioP2;P2;SDS_P1;SDS_P2;PMS_P1;PMS_P2;Temp;Humidity;BMP_temperature;BMP_pressure;BME280_temperature;BME280_humidity;BME280_pressure;Samples;Min_cycle;Max_cycle;Signal;HPM_P1;HPM_P2
2023/12/29 00:01:18;;;;;;;40.42;33.38;;;;;;;3.91;100.00;96697.94;5055104;28;20021;-76
2023/12/29 00:03:43;;;;;;;41.40;32.55;;;;;;;3.92;100.00;96687.47;5046662;28;20017;-77
2023/12/29 00:06:09;;;;;;;41.78;33.10;;;;;;;3.90;100.00;96696.25;5040078;28;20029;-77
2023/12/29 00:08:36;;;;;;;38.55;32.22;;;;;;;3.89;100.00;96682.41;5043351;28;20100;-77
2023/12/29 00:11:02;;;;;;;40.03;31.83;;;;;;;3.88;100.00;96675.50;5040618;28;20535;-76
2023/12/29 00:13:27;;;;;;;43.40;34.42;;;;;;;3.88;100.00;96665.09;5044925;28;20025;-75
2023/12/29 00:15:54;;;;;;;37.38;31.40;;;;;;;3.82;100.00;96668.84;5042402;28;20054;-76
2023/12/29 00:18:19;;;;;;;39.35;32.13;;;;;;;3.80;100.00;96678.50;5039670;28;20025;-76
2023/12/29 00:20:45;;;;;;;51.17;36.53;;;;;;;3.79;100.00;96670.75;5042335;28;20021;-76
2023/12/29 00:23:10;;;;;;;39.53;30.30;;;;;;;3.77;100.00;96667.38;5045979;28;20017;-76
2023/12/29 00:25:36;;;;;;;36.40;30.15;;;;;;;3.77;100.00;96669.97;5050900;28;20029;-76
2023/12/29 00:28:03;;;;;;;39.88;30.40;;;;;;;3.78;100.00;96663.84;5046537;28;20032;-76
2023/12/29 00:30:29;;;;;;;43.00;31.90;;;;;;;3.76;100.00;96669.16;5046711;28;20565;-76
2023/12/29 00:32:57;;;;;;;41.70;31.23;;;;;;;3.72;100.00;96659.78;5045376;28;20064;-76
2023/12/29 00:35:23;;;;;;;44.90;31.23;;;;;;;3.67;100.00;96654.81;5047720;28;20044;-76
2023/12/29 00:37:50;;;;;;;50.67;35.40;;;;;;;3.85;100.00;96660.00;5041706;28;20421;-75
2023/12/29 00:40:16;;;;;;;65.40;41.97;;;;;;;3.83;100.00;96651.44;5046415;28;20042;-76
2023/12/29 00:42:41;;;;;;;54.08;36.85;;;;;;;3.87;100.00;96650.38;5044715;28;20040;-76
2023/12/29 00:45:07;;;;;;;52.75;33.80;;;;;;;3.84;100.00;96642.69;5050151;28;20029;-76
2023/12/29 00:47:33;;;;;;;55.70;36.20;;;;;;;3.80;100.00;96635.97;5048827;28;20528;-76
2023/12/29 00:49:59;;;;;;;50.58;34.75;;;;;;;3.77;100.00;96633.50;5043284;28;20033;-76
2023/12/29 00:52:25;;;;;;;44.95;32.15;;;;;;;3.94;100.00;96636.13;5042768;28;20028;-76
2023/12/29 00:54:50;;;;;;;44.60;31.95;;;;;;;3.85;100.00;96632.22;5045195;28;20049;-76
2023/12/29 00:57:16;;;;;;;45.28;31.50;;;;;;;3.80;100.00;96638.56;5041443;28;20095;-76
2023/12/29 00:59:41;;;;;;;42.55;31.05;;;;;;;3.78;100.00;96646.47;5042152;28;20520;-76
2023/12/29 01:02:07;;;;;;;42.10;31.05;;;;;;;3.77;100.00;96644.78;5045171;28;20014;-76
2023/12/29 01:04:33;;;;;;;47.53;33.50;;;;;;;3.78;100.00;96645.63;5044007;28;20123;-77
2023/12/29 01:06:59;;;;;;;44.38;34.03;;;;;;;3.79;100.00;96639.47;5041527;28;20029;-77
2023/12/29 01:09:25;;;;;;;47.90;33.75;;;;;;;3.78;100.00;96649.06;5045127;28;20033;-76
2023/12/29 01:11:51;;;;;;;43.42;31.60;;;;;;;3.76;100.00;96645.72;5046525;28;20029;-76
2023/12/29 01:14:16;;;;;;;44.85;31.20;;;;;;;3.76;100.00;96637.03;5045587;28;20537;-76
2023/12/29 01:16:42;;;;;;;40.67;28.40;;;;;;;3.78;100.00;96638.66;5048803;28;20026;-76
2023/12/29 01:19:07;;;;;;;42.10;30.63;;;;;;;3.78;100.00;96650.81;5049986;28;20112;-76
2023/12/29 01:21:33;;;;;;;44.50;32.08;;;;;;;3.78;100.00;96646.47;5047838;28;20070;-76
2023/12/29 01:24:00;;;;;;;41.58;31.58;;;;;;;3.79;100.00;96647.28;5044732;28;20035;-76
2023/12/29 01:26:26;;;;;;;41.55;31.55;;;;;;;3.77;100.00;96650.00;5047411;28;20040;-76
2023/12/29 01:28:52;;;;;;;39.15;29.42;;;;;;;3.78;100.00;96656.03;5043248;28;20434;-77
2023/12/29 01:31:17;;;;;;;36.03;26.73;;;;;;;3.78;100.00;96653.44;5045853;28;20100;-77
2023/12/29 01:33:43;;;;;;;38.38;27.52;;;;;;;3.82;100.00;96652.34;5047413;28;20021;-76
2023/12/29 01:36:08;;;;;;;38.67;27.88;;;;;;;3.94;100.00;96656.09;5051874;28;20021;-78
2023/12/29 01:38:34;;;;;;;38.35;26.27;;;;;;;3.95;100.00;96655.19;5051092;28;20111;-77
2023/12/29 01:40:59;;;;;;;33.88;24.95;;;;;;;4.05;100.00;96645.13;5044680;28;20029;-77
2023/12/29 01:43:25;;;;;;;33.60;24.17;;;;;;;3.99;100.00;96641.09;5051781;28;20025;-76
2023/12/29 01:45:50;;;;;;;36.13;24.98;;;;;;;3.93;100.00;96638.78;5046144;28;20081;-76
2023/12/29 01:48:15;;;;;;;33.13;24.83;;;;;;;3.89;100.00;96643.31;5046570;28;20045;-77
2023/12/29 01:50:44;;;;;;;33.35;25.08;;;;;;;3.83;100.00;96654.88;5050198;28;20052;-76
2023/12/29 01:53:10;;;;;;;29.73;22.95;;;;;;;3.78;100.00;96659.50;5050983;28;20029;-77
2023/12/29 01:55:37;;;;;;;36.03;25.60;;;;;;;3.73;100.00;96664.06;5048465;28;20035;-76
2023/12/29 01:58:02;;;;;;;35.85;26.00;;;;;;;3.69;100.00;96668.59;5052933;28;20025;-77
2023/12/29 02:00:28;;;;;;;31.95;25.20;;;;;;;3.70;100.00;96675.50;5046856;28;20035;-77
2023/12/29 02:02:53;;;;;;;34.03;23.77;;;;;;;3.70;100.00;96661.63;5050611;28;20024;-77
2023/12/29 02:05:22;;;;;;;34.53;22.52;;;;;;;3.70;100.00;96659.00;5052732;28;20024;-76
2023/12/29 02:07:51;;;;;;;28.85;22.77;;;;;;;3.72;100.00;96664.97;5047650;28;20024;-76
2023/12/29 02:10:17;;;;;;;29.20;20.85;;;;;;;3.73;100.00;96664.06;5053565;28;20071;-76
2023/12/29 02:12:46;;;;;;;32.45;21.80;;;;;;;3.69;100.00;96663.41;5048437;28;20025;-76
2023/12/29 02:15:11;;;;;;;25.98;20.27;;;;;;;3.68;100.00;96666.06;5046290;28;20026;-77
2023/12/29 02:17:52;;;;;;;95.85;63.78;;;;;;;3.69;100.00;96668.59;5045799;28;20033;-76
2023/12/29 02:20:18;;;;;;;82.80;56.60;;;;;;;3.70;100.00;96664.22;5049188;28;20032;-76
2023/12/29 02:22:43;;;;;;;55.67;38.75;;;;;;;3.72;100.00;96670.19;5044777;28;20025;-76
2023/12/29 02:25:10;;;;;;;39.45;29.02;;;;;;;3.70;100.00;96665.06;5044965;28;20052;-76
2023/12/29 02:27:59;;;;;;;43.33;29.85;;;;;;;3.69;100.00;96660.78;5051674;28;20028;-76
2023/12/29 02:30:36;;;;;;;36.65;26.33;;;;;;;3.65;100.00;96661.00;5046322;28;20047;-76
2023/12/29 02:33:05;;;;;;;39.95;27.77;;;;;;;3.63;100.00;96658.47;5045870;28;20074;-76
2023/12/29 02:35:42;;;;;;;34.67;26.67;;;;;;;3.63;100.00;96648.03;5051866;28;20113;-76
2023/12/29 02:38:08;;;;;;;34.63;25.83;;;;;;;3.64;100.00;96649.72;5045094;28;20027;-76
2023/12/29 02:40:33;;;;;;;29.15;22.58;;;;;;;3.65;100.00;96643.63;5052678;28;20104;-76
2023/12/29 02:42:59;;;;;;;27.13;19.30;;;;;;;3.66;100.00;96647.94;5048892;28;21014;-76
2023/12/29 02:45:24;;;;;;;28.70;20.77;;;;;;;3.67;100.00;96638.34;5048811;28;20052;-76
2023/12/29 02:47:50;;;;;;;30.45;22.90;;;;;;;3.66;100.00;96637.50;5046989;28;20068;-76
2023/12/29 02:50:16;;;;;;;29.92;22.45;;;;;;;3.71;100.00;96643.31;5044217;28;20087;-77
2023/12/29 02:52:41;;;;;;;25.42;20.70;;;;;;;3.73;100.00;96638.03;5049158;28;20017;-77
2023/12/29 02:55:07;;;;;;;31.08;22.02;;;;;;;3.70;100.00;96636.44;5042404;28;20038;-77
2023/12/29 02:57:32;;;;;;;24.42;19.00;;;;;;;3.69;100.00;96639.09;5048718;28;20033;-78
2023/12/29 02:59:58;;;;;;;20.13;16.73;;;;;;;3.67;100.00;96633.13;5050465;28;20047;-77
2023/12/29 03:02:24;;;;;;;20.98;15.80;;;;;;;3.69;100.00;96634.75;5048432;28;20029;-77
2023/12/29 03:04:49;;;;;;;18.50;15.68;;;;;;;3.71;100.00;96629.44;5046173;28;20033;-77
2023/12/29 03:07:15;;;;;;;39.55;25.60;;;;;;;3.74;100.00;96629.28;5042957;28;20056;-76
2023/12/29 03:09:40;;;;;;;38.28;26.77;;;;;;;3.77;100.00;96618.75;5043450;28;20115;-77
2023/12/29 03:12:06;;;;;;;21.77;17.38;;;;;;;3.77;100.00;96616.13;5046758;28;20022;-77
2023/12/29 03:14:31;;;;;;;20.48;17.65;;;;;;;3.75;100.00;96606.69;5049693;28;20029;-77
2023/12/29 03:16:57;;;;;;;23.67;17.73;;;;;;;3.76;100.00;96603.16;5045661;28;20029;-77
2023/12/29 03:19:22;;;;;;;21.17;16.30;;;;;;;3.75;100.00;96602.31;5048822;28;20111;-77
2023/12/29 03:21:48;;;;;;;31.05;21.55;;;;;;;3.77;100.00;96589.22;5046102;28;20031;-77
2023/12/29 03:24:13;;;;;;;38.92;26.60;;;;;;;3.75;100.00;96594.50;5045711;28;20123;-76
2023/12/29 03:26:39;;;;;;;34.92;23.95;;;;;;;3.77;100.00;96597.03;5052182;28;20024;-77
2023/12/29 03:29:04;;;;;;;30.35;22.15;;;;;;;3.75;100.00;96585.84;5048845;28;20096;-77
2023/12/29 03:31:30;;;;;;;26.63;20.48;;;;;;;3.76;100.00;96590.16;5049391;28;20034;-77
2023/12/29 03:33:55;;;;;;;20.48;17.05;;;;;;;3.75;100.00;96589.28;5041575;28;20017;-77
2023/12/29 03:36:20;;;;;;;14.90;13.40;;;;;;;3.80;100.00;96592.53;5044751;28;20063;-77
2023/12/29 03:38:46;;;;;;;17.60;13.75;;;;;;;3.86;100.00;96583.53;5057743;28;20103;-77
2023/12/29 03:41:11;;;;;;;21.60;18.58;;;;;;;3.85;100.00;96589.66;5051208;28;20021;-77
2023/12/29 03:43:36;;;;;;;18.58;15.25;;;;;;;3.84;100.00;96583.63;5048120;28;20136;-78
2023/12/29 03:46:02;;;;;;;19.48;13.57;;;;;;;3.85;100.00;96589.66;5044187;28;20108;-77
2023/12/29 03:48:27;;;;;;;15.38;12.43;;;;;;;3.84;100.00;96598.41;5053177;28;20078;-77
2023/12/29 03:50:53;;;;;;;13.55;11.95;;;;;;;3.84;100.00;96598.41;5045339;28;20100;-77
2023/12/29 03:53:19;;;;;;;18.38;12.50;;;;;;;3.87;100.00;96591.28;5051212;28;20101;-77
2023/12/29 03:55:44;;;;;;;16.70;11.48;;;;;;;3.87;100.00;96599.09;5049129;28;20025;-77
2023/12/29 03:58:10;;;;;;;82.85;48.72;;;;;;;3.95;100.00;96603.94;5046956;28;20018;-77
2023/12/29 04:00:36;;;;;;;26.00;17.85;;;;;;;3.95;100.00;96597.84;5039123;28;20096;-76
2023/12/29 04:03:01;;;;;;;21.30;15.30;;;;;;;3.95;100.00;96596.09;5041903;28;20072;-76
2023/12/29 04:05:27;;;;;;;15.85;13.77;;;;;;;3.98;100.00;96595.94;5043495;28;20024;-77
2023/12/29 04:07:52;;;;;;;20.48;15.13;;;;;;;3.92;100.00;96601.47;5045108;28;20078;-76
2023/12/29 04:10:17;;;;;;;25.92;17.95;;;;;;;3.90;100.00;96600.72;5044854;28;20029;-77
2023/12/29 04:12:43;;;;;;;19.88;14.43;;;;;;;3.92;100.00;96605.84;5045976;28;20044;-77
2023/12/29 04:15:09;;;;;;;30.70;20.85;;;;;;;3.93;100.00;96616.19;5045294;28;20422;-76
2023/12/29 04:17:34;;;;;;;86.72;45.75;;;;;;;3.94;100.00;96607.44;5049311;28;20050;-76
2023/12/29 04:20:00;;;;;;;60.80;37.22;;;;;;;3.94;100.00;96623.09;5044701;28;20402;-76
2023/12/29 04:22:25;;;;;;;38.83;25.80;;;;;;;3.91;100.00;96612.81;5042830;28;20501;-76
2023/12/29 04:24:51;;;;;;;33.97;23.65;;;;;;;3.88;100.00;96620.81;5046274;28;20025;-77
2023/12/29 04:27:17;;;;;;;28.25;18.25;;;;;;;3.87;100.00;96611.31;5042028;28;20667;-77
2023/12/29 04:29:44;;;;;;;21.52;15.70;;;;;;;3.91;100.00;96625.84;5047202;28;20025;-76
2023/12/29 04:32:10;;;;;;;19.17;14.70;;;;;;;3.95;100.00;96624.78;5047800;28;20026;-76
2023/12/29 04:34:35;;;;;;;20.45;18.35;;;;;;;4.09;100.00;96623.19;5053021;28;20036;-77
2023/12/29 04:37:00;;;;;;;16.70;13.50;;;;;;;4.12;100.00;96617.84;5049060;28;20028;-77
2023/12/29 04:39:26;;;;;;;15.25;13.18;;;;;;;4.09;100.00;96615.38;5065407;28;20083;-76
2023/12/29 04:41:51;;;;;;;16.23;13.75;;;;;;;4.05;100.00;96611.25;5047360;28;20397;-76
2023/12/29 04:44:16;;;;;;;16.60;13.63;;;;;;;4.04;100.00;96620.84;5046111;28;20024;-76
2023/12/29 04:46:42;;;;;;;22.10;13.90;;;;;;;4.02;100.00;96612.28;5046963;28;20144;-77
2023/12/29 04:49:08;;;;;;;24.92;16.10;;;;;;;4.00;100.00;96616.72;5049770;28;20037;-76
2023/12/29 04:51:33;;;;;;;27.38;21.27;;;;;;;3.98;100.00;96610.75;5047167;28;20037;-76
2023/12/29 04:53:59;;;;;;;31.88;26.20;;;;;;;4.05;100.00;96611.25;5048762;28;20021;-76
2023/12/29 04:56:24;;;;;;;29.63;24.42;;;;;;;4.04;100.00;96612.19;5044072;28;20059;-76
2023/12/29 04:58:51;;;;;;;24.38;20.65;;;;;;;4.05;100.00;96606.03;5046218;28;20025;-76
2023/12/29 05:01:17;;;;;;;19.20;16.83;;;;;;;4.04;100.00;96610.44;5049282;28;20052;-76
2023/12/29 05:03:42;;;;;;;20.38;18.15;;;;;;;4.03;100.00;96603.53;5045130;28;20022;-77
2023/12/29 05:06:07;;;;;;;20.65;17.58;;;;;;;4.00;100.00;96608.91;5051008;28;20544;-76
2023/12/29 05:08:33;;;;;;;19.70;15.70;;;;;;;4.00;100.00;96617.56;5048455;28;20624;-76
2023/12/29 05:10:58;;;;;;;16.13;14.10;;;;;;;3.97;100.00;96612.50;5049640;28;20083;-76
2023/12/29 05:13:24;;;;;;;15.75;13.73;;;;;;;3.99;100.00;96625.47;5049532;28;20490;-76
2023/12/29 05:15:49;;;;;;;16.90;13.85;;;;;;;3.98;100.00;96622.00;5046142;28;20029;-76
2023/12/29 05:18:14;;;;;;;15.20;13.00;;;;;;;3.98;100.00;96622.00;5045557;28;20469;-76
2023/12/29 05:20:40;;;;;;;15.45;13.35;;;;;;;3.98;100.00;96623.78;5045650;28;20486;-76
2023/12/29 05:23:05;;;;;;;16.13;13.25;;;;;;;3.98;100.00;96623.78;5050581;28;20024;-76
2023/12/29 05:25:31;;;;;;;15.07;13.52;;;;;;;3.99;100.00;96625.47;5044283;28;20485;-76
2023/12/29 05:27:56;;;;;;;15.40;13.02;;;;;;;3.97;100.00;96630.75;5048677;28;20048;-76
2023/12/29 05:30:21;;;;;;;95.60;53.17;;;;;;;3.98;100.00;96631.59;5045479;28;20024;-76
2023/12/29 05:32:47;;;;;;;165.00;100.15;;;;;;;4.01;100.00;96631.44;5047076;28;20025;-76
2023/12/29 05:35:12;;;;;;;114.68;71.05;;;;;;;4.06;100.00;96629.44;5047046;28;20032;-76
2023/12/29 05:37:38;;;;;;;29.95;22.70;;;;;;;4.04;100.00;96635.63;5048897;28;20025;-76
2023/12/29 05:40:03;;;;;;;46.85;41.90;;;;;;;4.03;100.00;96633.94;5051955;28;20017;-77
2023/12/29 05:42:29;;;;;;;33.63;30.02;;;;;;;4.01;100.00;96639.25;5048747;28;20017;-76
2023/12/29 05:44:55;;;;;;;22.50;19.67;;;;;;;4.04;100.00;96636.50;5051937;28;20036;-77
2023/12/29 05:47:20;;;;;;;19.73;17.65;;;;;;;4.04;100.00;96628.66;5052101;28;20507;-77
2023/12/29 05:49:45;;;;;;;22.02;17.80;;;;;;;4.08;100.00;96629.34;5047114;28;20024;-76
2023/12/29 05:52:11;;;;;;;20.15;17.98;;;;;;;4.11;100.00;96631.81;5047617;28;20031;-76
2023/12/29 05:54:36;;;;;;;20.40;18.20;;;;;;;4.10;100.00;96636.16;5051211;28;20024;-77
2023/12/29 05:57:02;;;;;;;24.55;22.17;;;;;;;4.10;100.00;96630.97;5049226;28;20025;-75
2023/12/29 05:59:27;;;;;;;20.77;17.42;;;;;;;4.10;100.00;96632.75;5049051;28;20017;-76
2023/12/29 06:01:53;;;;;;;22.80;20.75;;;;;;;4.10;100.00;96637.94;5049607;28;20075;-76
2023/12/29 06:04:18;;;;;;;19.35;17.30;;;;;;;4.11;100.00;96631.81;5064868;28;20115;-77
2023/12/29 06:06:43;;;;;;;22.00;17.65;;;;;;;4.09;100.00;96631.88;5053684;28;20113;-76
2023/12/29 06:09:10;;;;;;;19.58;17.35;;;;;;;4.08;100.00;96638.00;5045755;28;20014;-76
2023/12/29 06:11:36;;;;;;;19.40;17.50;;;;;;;4.07;100.00;96638.06;5047603;28;21267;-77
2023/12/29 06:14:01;;;;;;;21.67;16.83;;;;;;;4.04;100.00;96646.06;5052778;28;20045;-76
2023/12/29 06:16:27;;;;;;;18.77;16.83;;;;;;;4.04;100.00;96640.84;5060995;28;20100;-77
2023/12/29 06:18:53;;;;;;;21.85;16.48;;;;;;;4.04;100.00;96646.91;5050782;28;20055;-76
2023/12/29 06:21:19;;;;;;;18.02;15.68;;;;;;;4.07;100.00;96648.50;5053046;28;20036;-76
2023/12/29 06:23:44;;;;;;;18.02;16.23;;;;;;;4.07;100.00;96662.38;5053260;28;20020;-77
2023/12/29 06:26:20;;;;;;;17.08;15.32;;;;;;;4.20;100.00;96666.97;5045271;28;20026;-76
2023/12/29 06:28:47;;;;;;;20.23;18.27;;;;;;;4.18;100.00;96667.06;5055040;28;20044;-76
2023/12/29 06:31:12;;;;;;;16.63;14.50;;;;;;;4.15;100.00;96667.22;5048842;28;20033;-77
2023/12/29 06:33:42;;;;;;;17.50;15.70;;;;;;;4.17;100.00;96670.59;5046441;28;20445;-76
2023/12/29 06:36:08;;;;;;;19.05;16.08;;;;;;;4.11;100.00;96674.34;5053468;28;20048;-77
2023/12/29 06:38:33;;;;;;;21.95;16.77;;;;;;;4.08;100.00;96671.03;5049907;28;20575;-76
2023/12/29 06:41:01;;;;;;;21.45;17.58;;;;;;;4.06;100.00;96675.47;5053501;28;20025;-76
2023/12/29 06:43:26;;;;;;;19.58;17.38;;;;;;;4.06;100.00;96680.69;5050449;28;20029;-77
2023/12/29 06:45:52;;;;;;;21.30;17.42;;;;;;;4.08;100.00;96678.84;5050593;28;20029;-76
2023/12/29 06:48:17;;;;;;;19.05;17.05;;;;;;;4.11;100.00;96674.34;5050735;28;20911;-76
2023/12/29 06:50:42;;;;;;;22.67;18.52;;;;;;;4.13;100.00;96680.31;5051729;28;20037;-77
2023/12/29 06:53:08;;;;;;;18.63;16.73;;;;;;;4.15;100.00;96665.44;5052504;28;20128;-79
2023/12/29 06:55:33;;;;;;;22.17;16.85;;;;;;;4.16;100.00;96666.28;5046355;28;20040;-77
2023/12/29 06:57:58;;;;;;;20.23;18.08;;;;;;;4.16;100.00;96681.94;5047764;28;20351;-76
2023/12/29 07:00:24;;;;;;;25.60;21.23;;;;;;;4.15;100.00;96681.06;5049714;28;20032;-76
2023/12/29 07:02:50;;;;;;;23.50;20.10;;;;;;;4.12;100.00;96676.03;5043421;28;20378;-76
2023/12/29 07:05:15;;;;;;;26.42;21.25;;;;;;;4.13;100.00;96674.28;5048245;28;20056;-75
2023/12/29 07:07:40;;;;;;;27.30;21.80;;;;;;;4.15;100.00;96670.66;5049326;28;20033;-76
2023/12/29 07:10:06;;;;;;;26.15;23.33;;;;;;;4.18;100.00;96671.41;5049594;28;20040;-76
2023/12/29 07:12:31;;;;;;;29.92;26.20;;;;;;;4.15;100.00;96669.81;5049512;28;20371;-75
2023/12/29 07:14:57;;;;;;;34.80;28.92;;;;;;;4.13;100.00;96667.28;5056695;28;20029;-75
2023/12/29 07:17:22;;;;;;;35.65;28.58;;;;;;;4.14;100.00;96661.16;5049464;28;20071;-75
2023/12/29 07:19:48;;;;;;;31.15;25.23;;;;;;;4.14;100.00;96662.94;5044612;28;20026;-75
2023/12/29 07:22:13;;;;;;;27.25;24.17;;;;;;;4.15;100.00;96660.22;5045893;28;20024;-76
2023/12/29 07:24:40;;;;;;;28.70;23.90;;;;;;;4.15;100.00;96673.25;5050226;28;20039;-79
2023/12/29 07:27:06;;;;;;;29.33;22.83;;;;;;;4.17;100.00;96681.00;5047163;28;20035;-73
2023/12/29 07:29:32;;;;;;;25.13;21.50;;;;;;;4.17;100.00;96678.41;5049565;28;20460;-74
2023/12/29 07:31:57;;;;;;;31.80;23.75;;;;;;;4.14;100.00;96682.00;5053432;28;20025;-74
2023/12/29 07:34:22;;;;;;;41.55;31.20;;;;;;;4.15;100.00;96680.25;5050204;28;20448;-74
2023/12/29 07:36:48;;;;;;;33.72;29.17;;;;;;;4.19;100.00;96686.13;5047910;28;20028;-73
2023/12/29 07:39:13;;;;;;;30.85;25.60;;;;;;;4.19;100.00;96684.38;5052948;28;20052;-73
2023/12/29 07:41:41;;;;;;;34.50;27.25;;;;;;;4.21;100.00;96679.94;5052398;28;20024;-74
2023/12/29 07:44:06;;;;;;;38.72;30.13;;;;;;;4.24;100.00;96681.56;5053032;28;20025;-74
2023/12/29 07:46:32;;;;;;;40.10;28.45;;;;;;;4.25;100.00;96680.63;5046969;28;20099;-77
2023/12/29 07:48:57;;;;;;;27.95;24.83;;;;;;;4.32;100.00;96686.38;5052996;28;20409;-77
2023/12/29 07:51:22;;;;;;;29.25;25.23;;;;;;;4.34;100.00;96680.13;5049255;28;20158;-78
2023/12/29 07:53:48;;;;;;;24.80;22.20;;;;;;;4.41;100.00;96680.66;5042687;28;20032;-76
2023/12/29 07:56:13;;;;;;;21.55;19.33;;;;;;;4.45;100.00;96682.19;5046783;28;20028;-77
2023/12/29 07:58:39;;;;;;;22.90;20.65;;;;;;;4.46;100.00;96681.28;5045280;28;20163;-76
2023/12/29 08:01:04;;;;;;;26.35;23.38;;;;;;;4.48;100.00;96681.22;5048148;28;20053;-76
2023/12/29 08:03:29;;;;;;;25.65;21.63;;;;;;;4.48;100.00;96674.22;5043534;28;20021;-73
2023/12/29 08:05:55;;;;;;;28.25;24.63;;;;;;;4.50;100.00;96676.75;5051815;28;20071;-76
2023/12/29 08:08:20;;;;;;;24.52;22.13;;;;;;;4.51;100.00;96681.88;5052105;28;20029;-77
2023/12/29 08:10:45;;;;;;;31.95;27.90;;;;;;;4.49;100.00;96678.50;5049004;28;20106;-76
2023/12/29 08:13:11;;;;;;;41.88;33.35;;;;;;;4.52;100.00;96677.50;5044458;28;20021;-76
2023/12/29 08:15:37;;;;;;;182.50;102.30;;;;;;;4.53;100.00;96674.84;5049951;28;20139;-76
2023/12/29 08:18:03;;;;;;;77.90;54.10;;;;;;;4.57;100.00;96672.88;5064617;28;20075;-76
2023/12/29 08:20:29;;;;;;;37.53;30.13;;;;;;;4.59;100.00;96671.91;5052497;28;20028;-76
2023/12/29 08:22:56;;;;;;;29.45;23.38;;;;;;;4.61;100.00;96686.63;5047705;28;20009;-75
2023/12/29 08:25:22;;;;;;;23.65;20.23;;;;;;;4.62;100.00;96680.47;5047303;28;20040;-76
2023/12/29 08:27:47;;;;;;;28.85;25.17;;;;;;;4.64;100.00;96686.44;5050455;28;20025;-77
2023/12/29 08:30:13;;;;;;;23.83;19.90;;;;;;;4.70;100.00;96688.72;5039810;28;20025;-75
2023/12/29 08:32:38;;;;;;;29.65;21.63;;;;;;;4.69;100.00;96693.13;5045919;28;20041;-77
2023/12/29 08:35:04;;;;;;;52.67;43.40;;;;;;;4.67;100.00;96697.59;5048592;28;20057;-76
2023/12/29 08:37:29;;;;;;;52.70;39.80;;;;;;;4.66;100.00;96689.81;5044185;28;20690;-74
2023/12/29 08:39:55;;;;;;;47.60;38.88;;;;;;;4.64;100.00;96699.50;5047305;28;20067;-71
2023/12/29 08:42:21;;;;;;;27.05;21.70;;;;;;;4.72;100.00;96705.13;5044499;28;20143;-72
2023/12/29 08:44:47;;;;;;;19.73;16.90;;;;;;;4.53;100.00;96705.28;5045653;28;20493;-71
2023/12/29 08:47:13;;;;;;;23.60;18.67;;;;;;;4.46;100.00;96706.53;5047753;28;20350;-73
2023/12/29 08:49:40;;;;;;;26.02;21.67;;;;;;;4.61;100.00;96702.28;5051327;28;20013;-74
2023/12/29 08:52:06;;;;;;;26.90;24.17;;;;;;;4.47;100.00;96703.00;5049356;28;20119;-74
2023/12/29 08:54:31;;;;;;;44.38;34.25;;;;;;;4.41;100.00;96709.34;5048024;28;20017;-75
2023/12/29 08:56:57;;;;;;;28.75;22.75;;;;;;;4.34;100.00;96714.03;5050420;28;20020;-78
2023/12/29 08:59:23;;;;;;;21.67;19.67;;;;;;;4.34;100.00;96710.59;5046626;28;20048;-76
2023/12/29 09:01:48;;;;;;;19.35;17.13;;;;;;;4.51;100.00;96712.34;5045595;28;20020;-79
2023/12/29 09:04:14;;;;;;;41.83;34.95;;;;;;;4.54;100.00;96697.38;5050772;28;20440;-78
2023/12/29 09:06:39;;;;;;;40.88;34.28;;;;;;;4.66;100.00;96702.88;5046853;28;20104;-76
2023/12/29 09:09:04;;;;;;;36.42;29.60;;;;;;;4.62;100.00;96693.53;5041685;28;20031;-75
2023/12/29 09:11:30;;;;;;;47.20;38.53;;;;;;;4.62;100.00;96699.56;5050975;28;20021;-76
2023/12/29 09:13:55;;;;;;;63.53;54.05;;;;;;;4.68;100.00;96698.41;5047122;28;20101;-73
2023/12/29 09:16:20;;;;;;;28.75;25.75;;;;;;;4.68;100.00;96693.19;5044777;28;20478;-74
2023/12/29 09:18:46;;;;;;;23.55;20.50;;;;;;;4.67;100.00;96686.28;5036982;28;20124;-74
2023/12/29 09:21:12;;;;;;;17.83;15.90;;;;;;;4.73;100.00;96688.56;5042041;28;20021;-72
2023/12/29 09:23:38;;;;;;;16.48;14.77;;;;;;;4.78;100.00;96676.13;5045629;28;20112;-73
2023/12/29 09:26:04;;;;;;;16.60;14.90;;;;;;;4.76;100.00;96680.59;5046982;28;20029;-73
2023/12/29 09:28:32;;;;;;;15.95;14.25;;;;;;;4.83;100.00;96684.56;5051383;28;20021;-72
2023/12/29 09:30:57;;;;;;;20.23;18.27;;;;;;;4.88;100.00;96679.94;5047279;28;20047;-73
2023/12/29 09:33:24;;;;;;;28.75;21.67;;;;;;;4.96;100.00;96676.91;5046581;28;20456;-73
2023/12/29 09:35:50;;;;;;;17.65;15.95;;;;;;;5.01;100.00;96685.31;5056743;28;20075;-73
2023/12/29 09:38:16;;;;;;;19.08;16.77;;;;;;;5.10;100.00;96684.00;5053904;28;20143;-75
2023/12/29 09:40:41;;;;;;;27.17;23.92;;;;;;;5.24;100.00;96685.00;5049160;28;20059;-75
2023/12/29 09:43:08;;;;;;;21.75;19.45;;;;;;;5.34;100.00;96678.34;5052165;28;20041;-74
2023/12/29 09:45:38;;;;;;;22.15;19.88;;;;;;;5.38;100.00;96687.69;5041778;28;20033;-74
2023/12/29 09:48:11;;;;;;;34.53;31.23;;;;;;;5.55;100.00;96684.16;5045154;28;20124;-73
2023/12/29 09:50:37;;;;;;;43.15;34.05;;;;;;;5.61;100.00;96687.34;5045134;28;20028;-75
2023/12/29 09:53:04;;;;;;;20.88;18.65;;;;;;;5.64;100.00;96685.41;5046064;28;20029;-75
2023/12/29 09:55:31;;;;;;;18.95;17.05;;;;;;;5.72;100.00;96687.56;5048369;28;20489;-75
2023/12/29 09:57:59;;;;;;;21.58;19.38;;;;;;;5.88;100.00;96685.75;5051317;28;20063;-74
2023/12/29 10:00:26;;;;;;;46.72;31.73;;;;;;;6.04;100.00;96689.28;5052027;28;20033;-73
2023/12/29 10:02:53;;;;;;;33.00;25.88;;;;;;;6.36;100.00;96694.41;5050731;28;20021;-72
2023/12/29 10:05:18;;;;;;;34.83;29.20;;;;;;;6.52;100.00;96697.81;5044965;28;20045;-73
2023/12/29 10:07:46;;;;;;;29.25;26.35;;;;;;;6.62;100.00;96689.38;5045001;28;20017;-71
2023/12/29 10:10:15;;;;;;;31.92;28.45;;;;;;;6.64;100.00;96698.84;5049286;28;20029;-74
2023/12/29 10:12:42;;;;;;;18.55;16.65;;;;;;;6.72;100.00;96712.28;5049677;28;20022;-73
2023/12/29 10:15:14;;;;;;;34.92;31.17;;;;;;;6.74;100.00;96709.56;5042744;28;20100;-76
2023/12/29 10:18:05;;;;;;;25.20;22.50;;;;;;;6.78;100.00;96710.22;5048991;28;20086;-74
2023/12/29 10:20:45;;;;;;;28.02;25.23;;;;;;;6.75;100.00;96706.03;5050658;28;20567;-73
2023/12/29 10:23:13;;;;;;;27.08;24.35;;;;;;;6.71;100.00;96702.75;5041892;28;20025;-73
2023/12/29 10:25:39;;;;;;;26.08;23.40;;;;;;;6.65;100.00;96704.91;5049561;28;20028;-72
2023/12/29 10:28:06;;;;;;;15.10;13.23;;;;;;;6.66;100.00;96702.19;5053621;28;20029;-73
2023/12/29 10:30:32;;;;;;;15.35;13.75;;;;;;;6.79;100.00;96717.13;5053663;28;20103;-69
2023/12/29 10:33:00;;;;;;;15.65;14.15;;;;;;;6.98;100.00;96707.22;5046765;28;20073;-68
2023/12/29 10:35:25;;;;;;;18.23;15.93;;;;;;;7.24;100.00;96699.53;5048834;28;20037;-74
2023/12/29 10:37:51;;;;;;;22.70;20.40;;;;;;;7.35;100.00;96693.59;5047666;28;20098;-76
2023/12/29 10:40:18;;;;;;;23.65;21.48;;;;;;;7.35;100.00;96680.50;5049711;28;20062;-70
2023/12/29 10:42:57;;;;;;;22.30;19.85;;;;;;;7.44;100.00;96658.13;5037059;28;20013;-69
2023/12/29 10:45:24;;;;;;;16.65;15.07;;;;;;;7.54;100.00;96655.75;5041630;28;20033;-68
2023/12/29 10:47:50;;;;;;;16.42;14.95;;;;;;;7.67;100.00;96647.94;5049693;28;20045;-71
2023/12/29 10:50:16;;;;;;;16.60;14.88;;;;;;;7.81;100.00;96637.38;5043587;28;20025;-72
2023/12/29 10:52:42;;;;;;;17.50;15.80;;;;;;;7.82;100.00;96625.09;5045316;28;20036;-69
2023/12/29 10:55:11;;;;;;;22.27;19.90;;;;;;;7.85;100.00;96631.00;5048012;28;20028;-69
2023/12/29 10:57:37;;;;;;;26.05;23.38;;;;;;;7.82;100.00;96627.72;5052537;28;20078;-72
2023/12/29 11:00:06;;;;;;;38.03;34.25;;;;;;;7.74;100.00;96623.00;5043608;28;20063;-70
2023/12/29 11:02:32;;;;;;;16.48;14.98;;;;;;;7.71;100.00;96621.41;5042633;28;20031;-71
2023/12/29 11:05:06;;;;;;;21.65;19.75;;;;;;;7.81;100.00;96624.28;5042898;28;20025;-72
2023/12/29 11:07:36;;;;;;;13.77;12.57;;;;;;;7.91;100.00;96603.53;5047693;28;20017;-71
2023/12/29 11:10:06;;;;;;;15.02;13.52;;;;;;;8.11;100.00;96599.53;5048620;28;20024;-73
2023/12/29 11:12:33;;;;;;;13.38;12.23;;;;;;;8.38;100.00;96587.28;5051559;28;20021;-72